Previous Day
Next Day
Current Day
SHEF ID: FVSO2 FAIRVIEW
STATION TYPE: Mesonet
PRECIP AIR-TEMP WIND-DIRWIND-SPEED REL-HUMID SOLAR-RAD
in F deg mph % W/m2
Raw-Meson Raw-Meson Raw-Meson Raw-Meson Raw-Meson Raw-Meson
(US/Central)
05/15 00:00 0.00 63.64 151.00 14.37 71.75 0.00
05/15 01:00 0.00 62.64 146.25 13.48 74.25 0.00
05/15 02:00 0.00 62.33 148.00 10.74 76.75 0.00
05/15 03:00 0.00 61.88 114.00 7.38 79.75 0.00
05/15 04:00 0.00 61.74 114.25 5.09 82.00 0.00
05/15 05:00 0.00 62.02 119.00 5.81 81.50 0.00
05/15 06:00 0.00 62.28 147.75 8.44 80.00 0.00
05/15 07:00 0.00 60.62 143.25 7.05 84.50 7.50
05/15 08:00 0.00 60.35 119.50 5.65 87.00 47.50
05/15 09:00 0.00 62.33 84.25 4.13 84.25 140.25
05/15 10:00 0.00 66.74 172.25 4.64 75.00 486.00
05/15 11:00 0.00 71.42 201.50 6.43 70.00 613.25
05/15 12:00 0.00 71.69 169.75 11.86 70.25 296.00
05/15 13:00 0.00 76.59 186.50 10.68 64.75 915.00
05/15 14:00 0.00 77.90 163.50 7.38 61.50 468.00
05/15 15:00 0.00 78.98 174.75 9.62 59.50 365.00
05/15 16:00 0.00 80.38 186.00 14.26 58.25 727.00
05/15 17:00 0.00 79.61 167.75 13.09 57.75 434.50
05/15 18:00 0.00 79.16 157.25 14.76 60.50 456.00
05/15 19:00 0.00 78.35 151.25 14.15 62.75 251.50
05/15 20:00 0.00 76.42 152.00 9.90 66.50 91.00
05/15 21:00 0.00 73.67 152.00 9.29 71.00 5.00
05/15 22:00 0.00 71.87 161.50 8.28 75.50 0.00
05/15 23:00 ---- 69.71 147.25 6.60 81.00 0.00